KPDT/PDT METAR and TAF weather

Enter ICAO airport designator
Station Type Date Time Source
KPDT METAR 2019/04/26 03:53 UTC NOAA

KPDT 260353Z 33004KT 10SM CLR 13/05 A2997 RMK AO2 SLP143 T01330050


Station Type Date Time Source
KPDT Decoded METAR 2019/04/26 03:53 UTC NOAA

PENDLETON MUNICIPAL AIRPORT, OR, United States (KPDT) 45-70N 118-83W 458M
Apr 25, 2019 - 11:53 PM EDT / 2019.04.26 0353 UTC
Wind: from the NNW (330 degrees) at 5 MPH (4 KT):0
Visibility: 10 mile(s):0
Sky conditions: clear
Temperature: 55.9 F (13.3 C)
Dew Point: 41.0 F (5.0 C)
Relative Humidity: 57%
Pressure (altimeter): 29.97 in. Hg (1014 hPa)
ob: KPDT 260353Z 33004KT 10SM CLR 13/05 A2997 RMK AO2 SLP143 T01330050
cycle: 4

Station Type Date Time Source
KPDT TAF 2019/04/25 18:22 UTC NOAA

TAF KPDT 251720Z 2518/2618 35007KT P6SM BKN200
FM260500 15007KT P6SM SCT150 OVC200
FM261100 24010KT P6SM SCT080 BKN100 OVC150
FM261500 25016G24KT P6SM SCT100 BKN150
FM261730 27021G31KT P6SM SKC

Example: see airport list